createdAt,value
2022-08-03T00:00:40.293Z,100007.44
2022-08-03T00:03:09.002Z,100014.06
2022-08-03T00:05:38.248Z,100008.84
2022-08-03T00:08:07.020Z,100015.41
2022-08-03T00:10:37.033Z,100007.69
2022-08-03T00:13:05.831Z,100011.56
2022-08-03T00:15:34.301Z,100017.31
2022-08-03T00:18:02.751Z,100010.16
2022-08-03T00:20:31.318Z,100006.88
2022-08-03T00:22:59.818Z,100006.88
2022-08-03T00:25:28.499Z,100008.78
2022-08-03T00:27:58.345Z,100011.78
2022-08-03T00:30:30.914Z,100005.75
2022-08-03T00:33:00.451Z,100006.81
2022-08-03T00:35:46.529Z,100012.59
2022-08-03T00:38:17.566Z,100009.28
2022-08-03T00:40:46.029Z,100007.66
2022-08-03T00:43:15.846Z,100006.00
2022-08-03T00:45:44.694Z,100007.34
2022-08-03T00:48:19.794Z,100009.56
2022-08-03T00:51:00.836Z,100008.41
2022-08-03T00:53:29.795Z,100007.03
2022-08-03T00:55:58.521Z,100004.81
2022-08-03T00:58:28.400Z,100007.81
2022-08-03T01:00:56.841Z,99997.41
2022-08-03T01:03:25.313Z,99997.66
2022-08-03T01:05:59.476Z,99997.94
2022-08-03T01:08:42.072Z,99994.38
2022-08-03T01:11:18.865Z,100003.66
2022-08-03T01:14:00.326Z,100005.88
2022-08-03T01:16:55.795Z,100002.56
2022-08-03T01:19:42.903Z,99991.56
2022-08-03T01:22:24.698Z,100000.09
2022-08-03T01:24:59.671Z,100001.16
2022-08-03T01:27:38.591Z,99996.78
2022-08-03T01:30:10.214Z,99994.31
2022-08-03T01:32:59.547Z,99998.13
2022-08-03T01:35:38.829Z,99996.75
2022-08-03T01:38:13.945Z,99998.91
2022-08-03T01:40:45.057Z,99998.38
2022-08-03T01:44:03.053Z,100006.03
2022-08-03T01:46:10.509Z,100006.31
2022-08-03T01:48:41.091Z,100000.25
2022-08-03T01:51:11.845Z,99996.91
2022-08-03T01:53:43.978Z,100001.56
2022-08-03T01:56:13.796Z,99999.09
2022-08-03T01:58:43.467Z,100000.72
2022-08-03T02:01:14.894Z,100013.34
2022-08-03T02:04:00.635Z,100011.13
2022-08-03T02:07:00.139Z,100009.72
2022-08-03T02:09:23.752Z,100010.00
2022-08-03T02:11:54.488Z,100026.72
2022-08-03T02:14:25.098Z,100021.25
2022-08-03T02:16:57.166Z,100020.09
2022-08-03T02:19:30.387Z,100018.16
2022-08-03T02:22:03.366Z,100020.91
2022-08-03T02:24:33.498Z,100019.03
2022-08-03T02:27:04.805Z,100020.91
2022-08-03T02:29:39.195Z,100019.03
2022-08-03T02:32:18.748Z,100016.28
2022-08-03T02:34:50.376Z,100025.31
2022-08-03T02:37:21.149Z,100019.84
2022-08-03T02:39:53.533Z,100027.78
2022-08-03T02:42:24.585Z,100014.09
2022-08-03T02:44:56.890Z,100026.72
2022-08-03T02:47:29.200Z,100030.28
2022-08-03T02:50:18.864Z,100033.03
2022-08-03T02:52:49.309Z,100032.75
2022-08-03T02:55:19.580Z,100032.75
2022-08-03T02:57:49.914Z,100030.59
2022-08-03T03:00:27.418Z,100036.91
2022-08-03T03:03:00.446Z,100035.81
2022-08-03T03:05:55.824Z,100034.69
2022-08-03T03:08:28.094Z,100034.47
2022-08-03T03:10:58.148Z,100033.34
2022-08-03T03:13:28.528Z,100038.84
2022-08-03T03:15:58.752Z,100036.69
2022-08-03T03:18:29.767Z,100038.91
2022-08-03T03:21:00.230Z,100035.63
2022-08-03T03:23:30.247Z,100036.78
2022-08-03T03:26:00.342Z,100032.66
2022-08-03T03:28:29.779Z,100040.38
2022-08-03T03:30:58.337Z,100040.94
2022-08-03T03:33:28.725Z,100040.44
2022-08-03T03:35:58.855Z,100045.34
2022-08-03T03:38:27.671Z,100049.25
2022-08-03T03:40:56.691Z,100045.72
2022-08-03T03:43:26.013Z,100048.47
2022-08-03T03:45:56.887Z,100055.06
2022-08-03T03:48:26.739Z,100054.28
2022-08-03T03:50:58.062Z,100058.16
2022-08-03T03:53:27.200Z,100051.31
2022-08-03T03:56:01.550Z,100056.00
2022-08-03T03:58:33.161Z,100056.53
2022-08-03T04:01:02.043Z,100059.34
2022-08-03T04:03:30.759Z,100055.22
2022-08-03T04:06:14.584Z,100058.28
2022-08-03T04:09:00.318Z,100051.94
2022-08-03T04:11:33.379Z,100056.63
2022-08-03T04:14:07.915Z,100062.66
2022-08-03T04:16:43.590Z,100064.88
2022-08-03T04:19:19.661Z,100064.63
2022-08-03T04:21:57.123Z,100067.13
2022-08-03T04:24:29.062Z,100064.09
2022-08-03T04:26:58.831Z,100067.97
2022-08-03T04:29:30.379Z,100067.72
2022-08-03T04:32:01.628Z,100068.25
2022-08-03T04:34:32.203Z,100065.25
2022-08-03T04:37:07.238Z,100062.22
2022-08-03T04:39:38.149Z,100065.78
2022-08-03T04:42:09.360Z,100062.78
2022-08-03T04:44:40.652Z,100064.16
2022-08-03T04:47:10.124Z,100071.03
2022-08-03T04:49:39.781Z,100069.94
2022-08-03T04:52:11.017Z,100066.94
2022-08-03T04:54:50.305Z,100066.38
2022-08-03T04:57:22.378Z,100064.19
2022-08-03T05:00:02.725Z,100066.66
2022-08-03T05:02:35.246Z,100069.16
2022-08-03T05:05:03.856Z,100064.75
2022-08-03T05:07:35.453Z,100065.88
2022-08-03T05:10:15.670Z,100065.63
2022-08-03T05:12:46.858Z,100057.13
2022-08-03T05:15:16.139Z,100058.50
2022-08-03T05:17:44.739Z,100063.75
2022-08-03T05:20:16.613Z,100061.28
2022-08-03T05:22:48.924Z,100056.34
2022-08-03T05:25:19.749Z,100057.47
2022-08-03T05:27:50.083Z,100062.44
2022-08-03T05:30:30.828Z,100063.25
2022-08-03T05:33:04.018Z,100065.44
2022-08-03T05:36:01.318Z,100070.16
2022-08-03T05:38:24.024Z,100075.38
2022-08-03T05:41:21.214Z,100074.25
2022-08-03T05:43:46.147Z,100075.09
2022-08-03T05:46:14.677Z,100077.56
2022-08-03T05:48:43.316Z,100067.66
2022-08-03T05:51:12.502Z,100070.94
2022-08-03T05:53:43.278Z,100077.00
2022-08-03T05:56:14.895Z,100073.44
2022-08-03T05:58:45.698Z,100076.72
2022-08-03T06:01:14.444Z,100072.88
2022-08-03T06:03:43.099Z,100068.19
2022-08-03T06:06:12.149Z,100068.97
2022-08-03T06:08:42.757Z,100070.31
2022-08-03T06:11:11.271Z,100071.97
2022-08-03T06:13:40.405Z,100075.53
2022-08-03T06:16:09.317Z,100070.00
2022-08-03T06:18:38.099Z,100076.31
2022-08-03T06:21:14.304Z,100069.66
2022-08-03T06:23:53.962Z,100063.88
2022-08-03T06:26:26.404Z,100068.28
2022-08-03T06:28:55.521Z,100071.53
2022-08-03T06:31:33.316Z,100068.75
2022-08-03T06:34:34.144Z,100073.94
2022-08-03T06:36:53.528Z,100075.59
2022-08-03T06:39:24.437Z,100073.34
2022-08-03T06:41:54.516Z,100074.97
2022-08-03T06:44:24.107Z,100077.09
2022-08-03T06:46:53.175Z,100076.78
2022-08-03T06:49:21.764Z,100080.31
2022-08-03T06:52:05.038Z,100072.03
2022-08-03T06:54:39.596Z,100074.19
2022-08-03T06:57:09.813Z,100080.19
2022-08-03T07:00:06.026Z,100076.81
2022-08-03T07:02:28.196Z,100077.31
2022-08-03T07:04:57.414Z,100074.22
2022-08-03T07:07:26.072Z,100070.28
2022-08-03T07:09:57.569Z,100079.38
2022-08-03T07:12:30.170Z,100070.19
2022-08-03T07:15:01.723Z,100075.63
2022-08-03T07:17:36.215Z,100069.50
2022-08-03T07:20:07.513Z,100079.38
2022-08-03T07:22:36.981Z,100075.44
2022-08-03T07:25:07.715Z,100074.81
2022-08-03T07:27:36.297Z,100068.34
2022-08-03T07:30:09.614Z,100072.91
2022-08-03T07:32:49.763Z,100079.94
2022-08-03T07:35:24.944Z,100079.03
2022-08-03T07:37:54.693Z,100074.78
2022-08-03T07:40:31.768Z,100083.25
2022-08-03T07:43:00.629Z,100082.88
2022-08-03T07:45:29.041Z,100077.00
2022-08-03T07:47:57.465Z,100082.13
2022-08-03T07:50:26.121Z,100077.03
2022-08-03T07:52:56.208Z,100083.66
2022-08-03T07:55:28.110Z,100079.38
2022-08-03T07:58:04.087Z,100088.16
2022-08-03T08:00:32.929Z,100087.25
2022-08-03T08:03:01.434Z,100082.47
2022-08-03T08:05:30.402Z,100084.81
2022-08-03T08:07:58.923Z,100083.84
2022-08-03T08:10:29.559Z,100086.44
2022-08-03T08:12:58.813Z,100088.22
2022-08-03T08:15:27.626Z,100088.56
2022-08-03T08:17:57.867Z,100089.84
2022-08-03T08:20:31.476Z,100085.25
2022-08-03T08:23:02.914Z,100084.84
2022-08-03T08:25:34.292Z,100092.56
2022-08-03T08:28:29.460Z,100090.00
2022-08-03T08:30:53.111Z,100085.25
2022-08-03T08:33:23.298Z,100087.09
2022-08-03T08:35:54.499Z,100082.38
2022-08-03T08:38:23.917Z,100086.59
2022-08-03T08:40:56.808Z,100079.72
2022-08-03T08:43:25.298Z,100083.63
2022-08-03T08:45:55.623Z,100089.25
2022-08-03T08:48:27.143Z,100080.53
2022-08-03T08:50:56.903Z,100089.06
2022-08-03T08:53:28.120Z,100085.34
2022-08-03T08:56:01.666Z,100079.63
2022-08-03T08:58:32.700Z,100087.00
2022-08-03T09:01:01.452Z,100085.78
2022-08-03T09:03:31.054Z,100088.53
2022-08-03T09:06:03.203Z,100088.25
2022-08-03T09:08:33.106Z,100088.34
2022-08-03T09:11:03.048Z,100090.63
2022-08-03T09:13:31.837Z,100086.09
2022-08-03T09:16:14.323Z,100090.94
2022-08-03T09:18:43.801Z,100086.94
2022-08-03T09:21:36.006Z,100088.78
2022-08-03T09:24:13.034Z,100098.63
2022-08-03T09:26:53.857Z,100092.50
2022-08-03T09:29:23.540Z,100090.53
2022-08-03T09:32:02.996Z,100094.59
2022-08-03T09:34:31.955Z,100089.78
2022-08-03T09:37:00.374Z,100082.09
2022-08-03T09:39:40.975Z,100091.78
2022-08-03T09:42:14.646Z,100081.34
2022-08-03T09:44:45.704Z,100087.56
2022-08-03T09:47:18.883Z,100079.16
2022-08-03T09:50:01.479Z,100078.66
2022-08-03T09:52:49.207Z,100078.00
2022-08-03T09:56:33.220Z,100075.69
2022-08-03T09:58:14.475Z,100080.84
2022-08-03T10:01:08.081Z,100076.41
2022-08-03T10:04:04.450Z,100075.31
2022-08-03T10:06:33.830Z,100078.63
2022-08-03T10:09:11.317Z,100073.56
2022-08-03T10:11:42.558Z,100083.47
2022-08-03T10:14:19.206Z,100087.59
2022-08-03T10:16:49.362Z,100092.66
2022-08-03T10:19:18.330Z,100087.25
2022-08-03T10:21:51.645Z,100094.31
2022-08-03T10:24:27.237Z,100084.91
2022-08-03T10:27:02.931Z,100093.44
2022-08-03T10:29:38.882Z,100090.03
2022-08-03T10:32:15.852Z,100086.72
2022-08-03T10:34:46.429Z,100088.84
2022-08-03T10:37:17.445Z,100085.13
2022-08-03T10:39:54.511Z,100091.81
2022-08-03T10:42:26.377Z,100089.34
2022-08-03T10:45:04.744Z,100087.47
2022-08-03T10:47:34.475Z,100089.81
2022-08-03T10:50:03.891Z,100091.78
2022-08-03T10:52:38.152Z,100086.72
2022-08-03T10:55:48.526Z,100089.81
2022-08-03T10:58:30.579Z,100094.81
2022-08-03T11:01:00.920Z,100095.78
2022-08-03T11:03:29.534Z,100092.31
2022-08-03T11:06:18.715Z,100100.34
2022-08-03T11:08:48.507Z,100094.28
2022-08-03T11:11:28.749Z,100097.22
2022-08-03T11:14:06.027Z,100102.25
2022-08-03T11:16:38.006Z,100096.34
2022-08-03T11:19:08.444Z,100092.13
2022-08-03T11:21:59.237Z,100096.53
2022-08-03T11:24:59.401Z,100094.91
2022-08-03T11:27:30.819Z,100100.28
2022-08-03T11:30:02.030Z,100105.38
2022-08-03T11:32:58.768Z,100095.59
2022-08-03T11:35:29.252Z,100095.28
2022-08-03T11:38:08.875Z,100090.69
2022-08-03T11:40:40.367Z,100100.97
2022-08-03T11:43:10.385Z,100092.63
2022-08-03T11:45:39.274Z,100093.38
2022-08-03T11:48:18.542Z,100096.16
2022-08-03T11:50:47.098Z,100096.78
2022-08-03T11:53:17.725Z,100099.44
2022-08-03T11:55:49.074Z,100099.00
2022-08-03T11:59:17.465Z,100080.56
2022-08-03T12:01:10.762Z,100087.66
2022-08-03T12:03:40.639Z,100092.41
2022-08-03T12:06:11.774Z,100086.69
2022-08-03T12:08:41.189Z,100079.84
2022-08-03T12:11:11.526Z,100086.38
2022-08-03T12:14:44.123Z,100079.69
2022-08-03T12:16:32.894Z,100081.13
2022-08-03T12:19:05.173Z,100069.31
2022-08-03T12:21:34.107Z,100085.97
2022-08-03T12:24:04.198Z,100070.81
2022-08-03T12:26:45.124Z,100076.88
2022-08-03T12:29:27.898Z,100072.94
2022-08-03T12:31:56.535Z,100069.53
2022-08-03T12:34:47.483Z,100078.22
2022-08-03T12:37:22.852Z,100077.34
2022-08-03T12:40:02.236Z,100073.69
2022-08-03T12:42:36.256Z,100075.41
2022-08-03T12:45:19.872Z,100082.44
2022-08-03T12:47:52.668Z,100080.47
2022-08-03T12:50:31.945Z,100089.00
2022-08-03T12:53:01.756Z,100089.16
2022-08-03T12:55:56.415Z,100083.13
2022-08-03T12:58:35.077Z,100083.78
2022-08-03T13:01:09.772Z,100079.25
2022-08-03T13:03:45.908Z,100076.81
2022-08-03T13:06:21.862Z,100081.28
2022-08-03T13:08:51.641Z,100082.09
2022-08-03T13:11:43.481Z,100084.06
2022-08-03T13:14:16.744Z,100085.38
2022-08-03T13:16:49.511Z,100088.00
2022-08-03T13:19:18.230Z,100081.75
2022-08-03T13:21:53.524Z,100075.97
2022-08-03T13:24:34.843Z,100085.63
2022-08-03T13:28:04.794Z,100078.09
2022-08-03T13:29:54.222Z,100078.72
2022-08-03T13:32:23.985Z,100080.81
2022-08-03T13:34:52.458Z,100086.19
2022-08-03T13:37:22.659Z,100087.63
2022-08-03T13:39:58.712Z,100083.22
2022-08-03T13:42:30.665Z,100082.41
2022-08-03T13:44:59.698Z,100090.56
2022-08-03T13:47:29.183Z,100080.88
2022-08-03T13:50:00.947Z,100088.91
2022-08-03T13:52:35.697Z,100078.28
2022-08-03T13:55:07.424Z,100077.47
2022-08-03T13:58:05.035Z,100077.75
2022-08-03T14:00:29.346Z,100081.38
2022-08-03T14:03:06.458Z,100076.03
2022-08-03T14:05:39.247Z,100079.97
2022-08-03T14:08:10.181Z,100075.00
2022-08-03T14:10:40.375Z,100080.47
2022-08-03T14:13:09.429Z,100075.56
2022-08-03T14:15:38.757Z,100078.75
2022-08-03T14:18:15.465Z,100073.59
2022-08-03T14:20:50.136Z,100091.00
2022-08-03T14:23:21.920Z,100086.56
2022-08-03T14:25:52.250Z,100080.19
2022-08-03T14:28:23.468Z,100081.00
2022-08-03T14:30:53.149Z,100089.16
2022-08-03T14:33:22.012Z,100093.69
2022-08-03T14:35:50.882Z,100087.31
2022-08-03T14:38:19.701Z,100086.88
2022-08-03T14:40:50.349Z,100088.66
2022-08-03T14:43:20.379Z,100088.97
2022-08-03T14:45:48.904Z,100086.81
2022-08-03T14:50:26.547Z,100092.50
2022-08-03T14:51:06.208Z,100094.28
2022-08-03T14:53:35.841Z,100097.69
2022-08-03T14:56:10.214Z,100093.88
2022-08-03T14:58:39.345Z,100091.75
2022-08-03T15:02:02.560Z,100092.44
2022-08-03T15:03:57.276Z,100098.94
2022-08-03T15:06:25.920Z,100093.25
2022-08-03T15:09:21.364Z,100094.56
2022-08-03T15:11:44.662Z,100092.63
2022-08-03T15:14:14.775Z,100086.25
2022-08-03T15:16:43.499Z,100089.47
2022-08-03T15:20:03.088Z,100090.28
2022-08-03T15:22:01.225Z,100088.63
2022-08-03T15:24:30.525Z,100088.16
2022-08-03T15:27:00.504Z,100091.88
2022-08-03T15:30:07.314Z,100083.44
2022-08-03T15:32:23.280Z,100092.59
2022-08-03T15:34:52.233Z,100092.31
2022-08-03T15:37:21.433Z,100093.94
2022-08-03T15:39:59.157Z,100097.94
2022-08-03T15:42:31.341Z,100091.38
2022-08-03T15:45:00.242Z,100098.88
2022-08-03T15:47:29.045Z,100097.53
2022-08-03T15:49:57.601Z,100102.06
2022-08-03T15:52:26.161Z,100100.53
2022-08-03T15:54:54.999Z,100102.41
2022-08-03T15:57:23.867Z,100095.31
2022-08-03T15:59:53.820Z,100100.53
2022-08-03T16:02:22.440Z,100095.31
2022-08-03T16:04:50.906Z,100090.56
2022-08-03T16:07:40.408Z,100096.94
2022-08-03T16:10:28.884Z,100085.66
2022-08-03T16:12:58.990Z,100090.78
2022-08-03T16:15:28.910Z,100092.25
2022-08-03T16:17:57.475Z,100088.97
2022-08-03T16:20:30.932Z,100090.19
2022-08-03T16:23:10.559Z,100095.44
2022-08-03T16:25:40.833Z,100090.00
2022-08-03T16:28:14.176Z,100087.03
2022-08-03T16:30:46.748Z,100096.78
2022-08-03T16:33:17.791Z,100091.56
2022-08-03T17:10:22.044Z,100115.97
2022-08-03T17:12:55.794Z,100114.84
2022-08-03T17:15:38.008Z,100123.75
2022-08-03T17:18:18.308Z,100123.06
2022-08-03T17:20:51.082Z,100120.91
2022-08-03T17:23:34.459Z,100128.06
2022-08-03T17:26:12.528Z,100126.44
2022-08-03T17:28:51.304Z,100135.25
2022-08-03T17:31:31.094Z,100139.47
2022-08-03T17:34:04.268Z,100135.84
2022-08-03T17:37:02.555Z,100144.19
2022-08-03T17:39:48.538Z,100147.06
2022-08-03T17:42:30.382Z,100146.84
2022-08-03T17:45:03.930Z,100151.03
2022-08-03T17:47:41.107Z,100148.06
2022-08-03T17:50:24.582Z,100144.63
2022-08-03T17:53:07.554Z,100147.78
2022-08-03T17:55:56.880Z,100155.13
2022-08-03T18:02:06.073Z,100162.78
2022-08-03T18:04:55.425Z,100164.75
2022-08-03T18:07:40.667Z,100170.66
2022-08-03T18:10:11.747Z,100165.44
2022-08-03T18:12:51.779Z,100168.78
2022-08-03T18:15:28.671Z,100168.88
2022-08-03T18:18:02.668Z,100182.63
2022-08-03T18:20:41.159Z,100184.88
2022-08-03T18:23:25.031Z,100189.28
2022-08-03T18:26:01.728Z,100192.34
2022-08-03T18:28:31.052Z,100197.88
2022-08-03T18:31:06.089Z,100200.13
2022-08-03T18:34:19.087Z,100199.38
2022-08-03T18:36:30.902Z,100211.91
2022-08-03T18:39:03.968Z,100203.59
2022-08-03T18:41:34.804Z,100216.09
2022-08-03T18:44:08.045Z,100209.50
2022-08-03T18:47:15.791Z,100210.09
2022-08-03T18:49:58.969Z,100214.56
2022-08-03T18:52:37.160Z,100223.22
2022-08-03T18:55:19.763Z,100222.16
2022-08-03T18:57:54.353Z,100229.13
2022-08-03T19:00:24.287Z,100227.25
2022-08-03T19:02:58.988Z,100226.19
2022-08-03T19:05:53.831Z,100220.97
2022-08-03T19:08:25.978Z,100225.78
2022-08-03T19:11:00.899Z,100225.81
2022-08-03T19:13:40.544Z,100229.97
2022-08-03T19:16:22.507Z,100234.72
2022-08-03T19:18:55.500Z,100236.44
2022-08-03T19:21:24.797Z,100237.03
2022-08-03T19:23:54.060Z,100240.41
2022-08-03T19:26:26.731Z,100240.19
2022-08-03T19:29:00.489Z,100236.63
2022-08-03T19:31:31.101Z,100243.28
2022-08-03T19:34:05.426Z,100238.25
2022-08-03T19:39:24.663Z,100247.75
2022-08-03T19:41:56.991Z,100239.16
2022-08-03T19:44:41.075Z,100235.31
2022-08-03T19:47:17.114Z,100240.59
2022-08-03T19:50:06.200Z,100235.06
2022-08-03T19:52:38.936Z,100234.00
2022-08-03T19:55:12.460Z,100233.47
2022-08-03T19:57:45.616Z,100236.53
2022-08-03T20:00:19.564Z,100232.09
2022-08-03T20:02:50.728Z,100230.44
2022-08-03T20:05:21.035Z,100246.44
2022-08-03T20:07:51.431Z,100239.81
2022-08-03T20:10:21.454Z,100230.19
2022-08-03T20:12:50.746Z,100238.22
2022-08-03T20:15:30.961Z,100250.41
2022-08-03T20:18:01.075Z,100247.91
2022-08-03T20:20:33.509Z,100256.47
2022-08-03T20:23:07.134Z,100251.00
2022-08-03T20:25:48.767Z,100246.34
2022-08-03T20:28:30.875Z,100252.41
2022-08-03T20:31:01.853Z,100261.00
2022-08-03T20:33:48.818Z,100254.09
2022-08-03T20:36:19.820Z,100256.59
2022-08-03T20:38:49.057Z,100261.88
2022-08-03T20:41:19.111Z,100267.47
2022-08-03T20:43:49.542Z,100267.47
2022-08-03T20:46:30.889Z,100273.53
2022-08-03T20:49:03.769Z,100271.09
2022-08-03T20:51:50.207Z,100278.81
2022-08-03T20:54:29.118Z,100281.06
2022-08-03T20:56:58.954Z,100277.50
2022-08-03T20:59:46.860Z,100275.03
2022-08-03T21:02:19.630Z,100277.53
2022-08-03T21:04:57.824Z,100283.91
2022-08-03T21:08:04.081Z,100276.44
2022-08-03T21:10:21.255Z,100283.94
2022-08-03T21:13:02.595Z,100243.03
2022-08-03T21:13:04.851Z,100171.16
2022-08-03T21:13:14.923Z,100286.16
2022-08-03T21:16:12.053Z,100278.16
2022-08-03T21:18:40.150Z,100282.00
2022-08-03T21:21:11.059Z,100287.25
2022-08-03T21:23:48.874Z,100286.72
2022-08-03T21:26:19.786Z,100286.97
2022-08-03T21:28:49.012Z,100285.34
2022-08-03T21:31:24.216Z,100285.06
2022-08-03T21:33:56.526Z,100279.84
2022-08-03T21:36:27.406Z,100285.63
2022-08-03T21:38:58.252Z,100287.31
2022-08-03T21:41:28.496Z,100281.50
2022-08-03T21:43:57.245Z,100279.03
2022-08-03T21:46:28.366Z,100285.94
2022-08-03T21:50:04.559Z,100287.03
2022-08-03T21:51:51.632Z,100280.16
2022-08-03T21:54:25.183Z,100286.50
2022-08-03T21:56:56.225Z,100294.53
2022-08-03T21:59:26.745Z,100290.38
2022-08-03T22:01:58.443Z,100294.00
2022-08-03T22:04:53.102Z,100297.56
2022-08-03T22:07:18.372Z,100301.47
2022-08-03T22:09:50.991Z,100295.94
2022-08-03T22:12:24.099Z,100298.69
2022-08-03T22:15:01.458Z,100300.88
2022-08-03T22:17:54.957Z,100299.78
2022-08-03T22:20:23.933Z,100300.59
2022-08-03T22:22:57.014Z,100301.16
2022-08-03T22:25:30.749Z,100299.50
2022-08-03T22:28:01.600Z,100297.84
2022-08-03T22:30:31.773Z,100301.16
2022-08-03T22:33:01.755Z,100310.81
2022-08-03T22:35:32.491Z,100306.69
2022-08-03T22:38:15.059Z,100310.84
2022-08-03T22:40:45.912Z,100311.38
2022-08-03T22:43:14.788Z,100312.75
2022-08-03T22:46:09.954Z,100311.94
2022-08-03T22:48:40.631Z,100311.09
2022-08-03T22:51:11.066Z,100309.47
2022-08-03T22:53:40.545Z,100308.91
2022-08-03T22:56:11.138Z,100305.59
2022-08-03T22:58:39.672Z,100313.03
2022-08-03T23:01:09.629Z,100313.59
2022-08-03T23:04:00.176Z,100317.47
2022-08-03T23:06:35.296Z,100315.78
2022-08-03T23:09:07.472Z,100312.75
2022-08-03T23:11:43.002Z,100304.19
2022-08-03T23:14:16.400Z,100313.00
2022-08-03T23:16:46.241Z,100320.19
2022-08-03T23:19:25.505Z,100320.19
2022-08-03T23:22:02.713Z,100333.41
2022-08-03T23:24:36.077Z,100330.38
2022-08-03T23:27:07.370Z,100331.75
2022-08-03T23:29:37.517Z,100327.59
2022-08-03T23:32:07.967Z,100333.69
2022-08-03T23:34:57.805Z,100330.38
2022-08-03T23:37:26.755Z,100330.66
2022-08-03T23:39:58.327Z,100331.47
2022-08-03T23:42:29.468Z,100331.75
2022-08-03T23:44:59.515Z,100324.84
2022-08-03T23:47:46.945Z,100334.47
2022-08-03T23:50:17.066Z,100336.94
2022-08-03T23:52:57.033Z,100341.09
2022-08-03T23:55:41.135Z,100347.16
2022-08-03T23:58:24.176Z,100345.22
